sensor_id;sensor_type;location;lat;lon;timestamp;P1;durP1;ratioP1;P2;durP2;ratioP2
46675;SDS011;32412;51.478;5.694;2023-01-29T00:01:33;47.97;;;18.65;;
46675;SDS011;32412;51.478;5.694;2023-01-29T00:03:59;50.30;;;20.50;;
46675;SDS011;32412;51.478;5.694;2023-01-29T00:06:25;52.38;;;19.05;;
46675;SDS011;32412;51.478;5.694;2023-01-29T00:08:50;48.80;;;19.10;;
46675;SDS011;32412;51.478;5.694;2023-01-29T00:11:16;49.30;;;19.15;;
46675;SDS011;32412;51.478;5.694;2023-01-29T00:13:44;56.03;;;20.75;;
46675;SDS011;32412;51.478;5.694;2023-01-29T00:16:09;52.40;;;20.75;;
46675;SDS011;32412;51.478;5.694;2023-01-29T00:18:38;49.25;;;19.58;;
46675;SDS011;32412;51.478;5.694;2023-01-29T00:21:12;53.75;;;20.40;;
46675;SDS011;32412;51.478;5.694;2023-01-29T00:23:40;53.75;;;20.45;;
46675;SDS011;32412;51.478;5.694;2023-01-29T00:26:06;49.72;;;20.20;;
46675;SDS011;32412;51.478;5.694;2023-01-29T00:28:32;53.70;;;20.45;;
46675;SDS011;32412;51.478;5.694;2023-01-29T00:31:05;51.70;;;19.13;;
46675;SDS011;32412;51.478;5.694;2023-01-29T00:33:34;54.70;;;20.73;;
46675;SDS011;32412;51.478;5.694;2023-01-29T00:36:01;56.58;;;20.10;;
46675;SDS011;32412;51.478;5.694;2023-01-29T00:38:28;55.83;;;20.88;;
46675;SDS011;32412;51.478;5.694;2023-01-29T00:40:53;55.75;;;21.23;;
46675;SDS011;32412;51.478;5.694;2023-01-29T00:43:37;55.35;;;21.08;;
46675;SDS011;32412;51.478;5.694;2023-01-29T00:46:21;57.90;;;21.95;;
46675;SDS011;32412;51.478;5.694;2023-01-29T00:48:50;53.92;;;21.80;;
46675;SDS011;32412;51.478;5.694;2023-01-29T00:51:16;50.08;;;20.63;;
46675;SDS011;32412;51.478;5.694;2023-01-29T00:53:42;54.05;;;21.80;;
46675;SDS011;32412;51.478;5.694;2023-01-29T00:56:08;53.00;;;21.25;;
46675;SDS011;32412;51.478;5.694;2023-01-29T00:58:33;54.10;;;21.23;;
46675;SDS011;32412;51.478;5.694;2023-01-29T01:01:00;52.88;;;20.65;;
46675;SDS011;32412;51.478;5.694;2023-01-29T01:03:26;52.90;;;23.17;;
46675;SDS011;32412;51.478;5.694;2023-01-29T01:06:06;51.00;;;20.35;;
46675;SDS011;32412;51.478;5.694;2023-01-29T01:08:34;53.30;;;20.45;;
46675;SDS011;32412;51.478;5.694;2023-01-29T01:11:18;49.67;;;19.33;;
46675;SDS011;32412;51.478;5.694;2023-01-29T01:13:44;56.75;;;20.80;;
46675;SDS011;32412;51.478;5.694;2023-01-29T01:16:10;50.50;;;20.25;;
46675;SDS011;32412;51.478;5.694;2023-01-29T01:18:36;53.53;;;21.70;;
46675;SDS011;32412;51.478;5.694;2023-01-29T01:21:02;52.72;;;20.58;;
46675;SDS011;32412;51.478;5.694;2023-01-29T01:23:28;47.72;;;19.65;;
46675;SDS011;32412;51.478;5.694;2023-01-29T01:25:54;52.78;;;21.25;;
46675;SDS011;32412;51.478;5.694;2023-01-29T01:28:20;53.00;;;21.42;;
46675;SDS011;32412;51.478;5.694;2023-01-29T01:30:46;45.55;;;19.63;;
46675;SDS011;32412;51.478;5.694;2023-01-29T01:33:15;51.15;;;21.20;;
46675;SDS011;32412;51.478;5.694;2023-01-29T01:35:41;57.70;;;21.80;;
46675;SDS011;32412;51.478;5.694;2023-01-29T01:38:06;55.55;;;22.27;;
46675;SDS011;32412;51.478;5.694;2023-01-29T01:40:32;51.40;;;22.27;;
46675;SDS011;32412;51.478;5.694;2023-01-29T01:42:59;55.22;;;22.40;;
46675;SDS011;32412;51.478;5.694;2023-01-29T01:45:32;56.67;;;23.98;;
46675;SDS011;32412;51.478;5.694;2023-01-29T01:48:09;56.78;;;22.00;;
46675;SDS011;32412;51.478;5.694;2023-01-29T01:50:45;53.83;;;21.10;;
46675;SDS011;32412;51.478;5.694;2023-01-29T01:53:35;51.85;;;22.30;;
46675;SDS011;32412;51.478;5.694;2023-01-29T01:56:12;53.53;;;21.33;;
46675;SDS011;32412;51.478;5.694;2023-01-29T01:58:43;50.95;;;22.60;;
46675;SDS011;32412;51.478;5.694;2023-01-29T02:01:14;56.05;;;23.10;;
46675;SDS011;32412;51.478;5.694;2023-01-29T02:03:43;49.22;;;21.13;;
46675;SDS011;32412;51.478;5.694;2023-01-29T02:06:33;53.90;;;21.15;;
46675;SDS011;32412;51.478;5.694;2023-01-29T02:09:22;56.42;;;22.02;;
46675;SDS011;32412;51.478;5.694;2023-01-29T02:12:04;52.50;;;21.42;;
46675;SDS011;32412;51.478;5.694;2023-01-29T02:14:35;59.83;;;22.52;;
46675;SDS011;32412;51.478;5.694;2023-01-29T02:17:04;56.13;;;21.45;;
46675;SDS011;32412;51.478;5.694;2023-01-29T02:19:50;53.85;;;22.00;;
46675;SDS011;32412;51.478;5.694;2023-01-29T02:25:20;53.25;;;20.77;;
46675;SDS011;32412;51.478;5.694;2023-01-29T02:28:18;51.80;;;21.13;;
46675;SDS011;32412;51.478;5.694;2023-01-29T02:34:08;57.13;;;22.30;;
46675;SDS011;32412;51.478;5.694;2023-01-29T02:37:08;52.78;;;21.10;;
46675;SDS011;32412;51.478;5.694;2023-01-29T02:42:22;53.60;;;21.27;;
46675;SDS011;32412;51.478;5.694;2023-01-29T02:45:16;57.10;;;22.48;;
46675;SDS011;32412;51.478;5.694;2023-01-29T02:50:25;54.88;;;21.30;;
46675;SDS011;32412;51.478;5.694;2023-01-29T02:53:01;56.40;;;20.90;;
46675;SDS011;32412;51.478;5.694;2023-01-29T02:55:44;61.03;;;22.35;;
46675;SDS011;32412;51.478;5.694;2023-01-29T02:58:16;49.05;;;20.98;;
46675;SDS011;32412;51.478;5.694;2023-01-29T03:00:44;51.38;;;20.67;;
46675;SDS011;32412;51.478;5.694;2023-01-29T03:03:25;54.85;;;21.27;;
46675;SDS011;32412;51.478;5.694;2023-01-29T03:06:02;53.10;;;21.92;;
46675;SDS011;32412;51.478;5.694;2023-01-29T03:08:54;50.75;;;20.58;;
46675;SDS011;32412;51.478;5.694;2023-01-29T03:11:30;53.42;;;22.05;;
46675;SDS011;32412;51.478;5.694;2023-01-29T03:14:10;55.90;;;21.85;;
46675;SDS011;32412;51.478;5.694;2023-01-29T03:16:42;57.42;;;21.23;;
46675;SDS011;32412;51.478;5.694;2023-01-29T03:19:21;54.00;;;19.92;;
46675;SDS011;32412;51.478;5.694;2023-01-29T03:21:56;56.38;;;20.88;;
46675;SDS011;32412;51.478;5.694;2023-01-29T03:24:29;53.17;;;21.33;;
46675;SDS011;32412;51.478;5.694;2023-01-29T03:27:20;52.03;;;20.63;;
46675;SDS011;32412;51.478;5.694;2023-01-29T03:30:09;48.25;;;19.42;;
46675;SDS011;32412;51.478;5.694;2023-01-29T03:32:56;52.05;;;20.90;;
46675;SDS011;32412;51.478;5.694;2023-01-29T03:35:27;51.60;;;20.35;;
46675;SDS011;32412;51.478;5.694;2023-01-29T03:38:00;51.85;;;20.58;;
46675;SDS011;32412;51.478;5.694;2023-01-29T03:40:58;53.45;;;22.13;;
46675;SDS011;32412;51.478;5.694;2023-01-29T03:49:17;46.58;;;20.02;;
46675;SDS011;32412;51.478;5.694;2023-01-29T03:54:31;50.65;;;21.10;;
46675;SDS011;32412;51.478;5.694;2023-01-29T03:57:25;50.38;;;20.20;;
46675;SDS011;32412;51.478;5.694;2023-01-29T04:05:20;53.47;;;21.42;;
46675;SDS011;32412;51.478;5.694;2023-01-29T04:07:50;56.95;;;22.00;;
46675;SDS011;32412;51.478;5.694;2023-01-29T04:10:21;47.80;;;21.40;;
46675;SDS011;32412;51.478;5.694;2023-01-29T04:12:54;51.83;;;21.40;;
46675;SDS011;32412;51.478;5.694;2023-01-29T04:15:23;55.38;;;22.00;;
46675;SDS011;32412;51.478;5.694;2023-01-29T04:17:52;45.20;;;20.38;;
46675;SDS011;32412;51.478;5.694;2023-01-29T04:20:20;52.30;;;22.17;;
46675;SDS011;32412;51.478;5.694;2023-01-29T04:22:47;52.45;;;21.15;;
46675;SDS011;32412;51.478;5.694;2023-01-29T04:25:16;50.65;;;21.15;;
46675;SDS011;32412;51.478;5.694;2023-01-29T04:30:54;52.22;;;20.63;;
46675;SDS011;32412;51.478;5.694;2023-01-29T04:36:24;50.33;;;20.52;;
46675;SDS011;32412;51.478;5.694;2023-01-29T04:44:31;45.80;;;21.02;;
46675;SDS011;32412;51.478;5.694;2023-01-29T04:47:23;53.85;;;20.70;;
46675;SDS011;32412;51.478;5.694;2023-01-29T04:50:10;48.38;;;19.20;;
46675;SDS011;32412;51.478;5.694;2023-01-29T04:52:48;45.30;;;19.05;;
46675;SDS011;32412;51.478;5.694;2023-01-29T05:01:07;49.40;;;19.95;;
46675;SDS011;32412;51.478;5.694;2023-01-29T05:03:38;49.05;;;20.10;;
46675;SDS011;32412;51.478;5.694;2023-01-29T05:06:07;48.60;;;20.48;;
46675;SDS011;32412;51.478;5.694;2023-01-29T05:08:35;53.92;;;20.45;;
46675;SDS011;32412;51.478;5.694;2023-01-29T05:11:05;46.63;;;20.50;;
46675;SDS011;32412;51.478;5.694;2023-01-29T05:13:32;45.25;;;19.95;;
46675;SDS011;32412;51.478;5.694;2023-01-29T05:16:06;50.42;;;21.05;;
46675;SDS011;32412;51.478;5.694;2023-01-29T05:18:38;47.92;;;20.48;;
46675;SDS011;32412;51.478;5.694;2023-01-29T05:21:05;50.28;;;20.60;;
46675;SDS011;32412;51.478;5.694;2023-01-29T05:23:32;50.13;;;20.77;;
46675;SDS011;32412;51.478;5.694;2023-01-29T05:25:58;48.08;;;19.70;;
46675;SDS011;32412;51.478;5.694;2023-01-29T05:28:24;45.65;;;19.80;;
46675;SDS011;32412;51.478;5.694;2023-01-29T05:30:51;48.63;;;20.90;;
46675;SDS011;32412;51.478;5.694;2023-01-29T05:35:51;49.75;;;20.10;;
46675;SDS011;32412;51.478;5.694;2023-01-29T05:38:18;48.33;;;20.48;;
46675;SDS011;32412;51.478;5.694;2023-01-29T05:40:44;50.63;;;20.13;;
46675;SDS011;32412;51.478;5.694;2023-01-29T05:43:28;44.78;;;19.27;;
46675;SDS011;32412;51.478;5.694;2023-01-29T05:45:58;51.58;;;20.90;;
46675;SDS011;32412;51.478;5.694;2023-01-29T05:48:25;44.30;;;20.10;;
46675;SDS011;32412;51.478;5.694;2023-01-29T05:50:59;47.65;;;19.60;;
46675;SDS011;32412;51.478;5.694;2023-01-29T05:53:28;48.05;;;20.70;;
46675;SDS011;32412;51.478;5.694;2023-01-29T05:55:55;46.65;;;20.08;;
46675;SDS011;32412;51.478;5.694;2023-01-29T05:58:23;52.63;;;20.73;;
46675;SDS011;32412;51.478;5.694;2023-01-29T06:00:54;47.80;;;20.45;;
46675;SDS011;32412;51.478;5.694;2023-01-29T06:03:20;51.80;;;21.02;;
46675;SDS011;32412;51.478;5.694;2023-01-29T06:05:46;45.25;;;19.13;;
46675;SDS011;32412;51.478;5.694;2023-01-29T06:08:12;46.63;;;20.48;;
46675;SDS011;32412;51.478;5.694;2023-01-29T06:10:38;50.80;;;20.60;;
46675;SDS011;32412;51.478;5.694;2023-01-29T06:13:03;50.00;;;18.90;;
46675;SDS011;32412;51.478;5.694;2023-01-29T06:15:32;49.40;;;20.08;;
46675;SDS011;32412;51.478;5.694;2023-01-29T06:17:58;46.95;;;21.08;;
46675;SDS011;32412;51.478;5.694;2023-01-29T06:20:25;49.45;;;20.52;;
46675;SDS011;32412;51.478;5.694;2023-01-29T06:22:51;52.42;;;21.40;;
46675;SDS011;32412;51.478;5.694;2023-01-29T06:25:17;49.38;;;21.45;;
46675;SDS011;32412;51.478;5.694;2023-01-29T06:27:42;49.47;;;20.83;;
46675;SDS011;32412;51.478;5.694;2023-01-29T06:30:11;44.92;;;19.55;;
46675;SDS011;32412;51.478;5.694;2023-01-29T06:32:37;48.50;;;21.25;;
46675;SDS011;32412;51.478;5.694;2023-01-29T06:35:03;50.03;;;20.67;;
46675;SDS011;32412;51.478;5.694;2023-01-29T06:37:29;48.85;;;21.08;;
46675;SDS011;32412;51.478;5.694;2023-01-29T06:39:58;45.72;;;19.75;;
46675;SDS011;32412;51.478;5.694;2023-01-29T06:42:24;51.58;;;20.48;;
46675;SDS011;32412;51.478;5.694;2023-01-29T06:44:55;53.00;;;21.42;;
46675;SDS011;32412;51.478;5.694;2023-01-29T06:47:21;46.38;;;19.95;;
46675;SDS011;32412;51.478;5.694;2023-01-29T06:49:51;50.20;;;20.35;;
46675;SDS011;32412;51.478;5.694;2023-01-29T06:52:16;45.67;;;19.58;;
46675;SDS011;32412;51.478;5.694;2023-01-29T06:54:42;49.40;;;21.00;;
46675;SDS011;32412;51.478;5.694;2023-01-29T06:57:11;48.45;;;20.75;;
46675;SDS011;32412;51.478;5.694;2023-01-29T06:59:42;49.35;;;20.90;;
46675;SDS011;32412;51.478;5.694;2023-01-29T07:02:18;48.45;;;20.27;;
46675;SDS011;32412;51.478;5.694;2023-01-29T07:05:13;47.08;;;19.60;;
46675;SDS011;32412;51.478;5.694;2023-01-29T07:07:51;52.45;;;20.25;;
46675;SDS011;32412;51.478;5.694;2023-01-29T07:10:16;50.40;;;20.48;;
46675;SDS011;32412;51.478;5.694;2023-01-29T07:12:42;45.67;;;19.80;;
46675;SDS011;32412;51.478;5.694;2023-01-29T07:15:08;51.70;;;21.58;;
46675;SDS011;32412;51.478;5.694;2023-01-29T07:17:37;48.05;;;20.38;;
46675;SDS011;32412;51.478;5.694;2023-01-29T07:20:06;51.05;;;21.45;;
46675;SDS011;32412;51.478;5.694;2023-01-29T07:22:35;49.25;;;20.67;;
46675;SDS011;32412;51.478;5.694;2023-01-29T07:25:01;52.13;;;21.85;;
46675;SDS011;32412;51.478;5.694;2023-01-29T07:27:27;45.72;;;19.83;;
46675;SDS011;32412;51.478;5.694;2023-01-29T07:29:53;46.40;;;20.95;;
46675;SDS011;32412;51.478;5.694;2023-01-29T07:32:18;47.47;;;20.60;;
46675;SDS011;32412;51.478;5.694;2023-01-29T07:34:44;49.75;;;21.15;;
46675;SDS011;32412;51.478;5.694;2023-01-29T07:37:10;44.70;;;20.10;;
46675;SDS011;32412;51.478;5.694;2023-01-29T07:39:36;50.58;;;21.13;;
46675;SDS011;32412;51.478;5.694;2023-01-29T07:42:02;51.20;;;21.17;;
46675;SDS011;32412;51.478;5.694;2023-01-29T07:44:31;47.55;;;21.90;;
46675;SDS011;32412;51.478;5.694;2023-01-29T07:46:57;51.30;;;21.27;;
46675;SDS011;32412;51.478;5.694;2023-01-29T07:49:22;53.10;;;21.85;;
46675;SDS011;32412;51.478;5.694;2023-01-29T07:51:48;53.33;;;21.90;;
46675;SDS011;32412;51.478;5.694;2023-01-29T07:54:16;49.70;;;19.60;;
46675;SDS011;32412;51.478;5.694;2023-01-29T07:56:43;44.33;;;20.23;;
46675;SDS011;32412;51.478;5.694;2023-01-29T07:59:08;48.25;;;20.92;;
46675;SDS011;32412;51.478;5.694;2023-01-29T08:01:34;48.03;;;20.58;;
46675;SDS011;32412;51.478;5.694;2023-01-29T08:04:00;48.65;;;22.10;;
46675;SDS011;32412;51.478;5.694;2023-01-29T08:06:26;52.17;;;21.63;;
46675;SDS011;32412;51.478;5.694;2023-01-29T08:08:51;50.97;;;21.85;;
46675;SDS011;32412;51.478;5.694;2023-01-29T08:11:19;46.95;;;20.75;;
46675;SDS011;32412;51.478;5.694;2023-01-29T08:13:45;49.35;;;21.55;;
46675;SDS011;32412;51.478;5.694;2023-01-29T08:16:13;44.58;;;20.65;;
46675;SDS011;32412;51.478;5.694;2023-01-29T08:18:42;55.30;;;22.92;;
46675;SDS011;32412;51.478;5.694;2023-01-29T08:21:11;51.03;;;22.60;;
46675;SDS011;32412;51.478;5.694;2023-01-29T08:23:37;48.55;;;20.48;;
46675;SDS011;32412;51.478;5.694;2023-01-29T08:26:03;45.80;;;20.15;;
46675;SDS011;32412;51.478;5.694;2023-01-29T08:28:29;50.33;;;21.45;;
46675;SDS011;32412;51.478;5.694;2023-01-29T08:30:55;48.17;;;21.77;;
46675;SDS011;32412;51.478;5.694;2023-01-29T08:33:30;54.83;;;22.20;;
46675;SDS011;32412;51.478;5.694;2023-01-29T08:36:02;52.85;;;21.58;;
46675;SDS011;32412;51.478;5.694;2023-01-29T08:38:28;54.85;;;23.05;;
46675;SDS011;32412;51.478;5.694;2023-01-29T08:40:54;51.38;;;22.48;;
46675;SDS011;32412;51.478;5.694;2023-01-29T08:43:19;54.92;;;22.50;;
46675;SDS011;32412;51.478;5.694;2023-01-29T08:45:45;50.80;;;22.30;;
46675;SDS011;32412;51.478;5.694;2023-01-29T08:48:11;50.63;;;21.55;;
46675;SDS011;32412;51.478;5.694;2023-01-29T08:50:40;51.30;;;22.38;;
46675;SDS011;32412;51.478;5.694;2023-01-29T08:53:15;51.78;;;20.67;;
46675;SDS011;32412;51.478;5.694;2023-01-29T08:58:35;49.15;;;21.48;;
46675;SDS011;32412;51.478;5.694;2023-01-29T09:01:05;48.20;;;21.50;;
46675;SDS011;32412;51.478;5.694;2023-01-29T09:03:34;49.22;;;22.00;;
46675;SDS011;32412;51.478;5.694;2023-01-29T09:06:00;48.25;;;20.73;;
46675;SDS011;32412;51.478;5.694;2023-01-29T09:08:29;50.70;;;21.90;;
46675;SDS011;32412;51.478;5.694;2023-01-29T09:10:57;49.80;;;22.52;;
46675;SDS011;32412;51.478;5.694;2023-01-29T09:13:24;49.55;;;20.95;;
46675;SDS011;32412;51.478;5.694;2023-01-29T09:15:50;44.50;;;19.73;;
46675;SDS011;32412;51.478;5.694;2023-01-29T09:18:22;44.70;;;21.13;;
46675;SDS011;32412;51.478;5.694;2023-01-29T09:20:48;45.90;;;20.65;;
46675;SDS011;32412;51.478;5.694;2023-01-29T09:23:14;46.38;;;21.80;;
46675;SDS011;32412;51.478;5.694;2023-01-29T09:25:41;48.45;;;21.27;;
46675;SDS011;32412;51.478;5.694;2023-01-29T09:28:07;44.15;;;19.38;;
46675;SDS011;32412;51.478;5.694;2023-01-29T09:30:33;47.58;;;21.70;;
46675;SDS011;32412;51.478;5.694;2023-01-29T09:33:01;47.03;;;20.27;;
46675;SDS011;32412;51.478;5.694;2023-01-29T09:35:31;45.65;;;19.35;;
46675;SDS011;32412;51.478;5.694;2023-01-29T09:37:57;48.65;;;19.77;;
46675;SDS011;32412;51.478;5.694;2023-01-29T09:40:32;47.60;;;20.45;;
46675;SDS011;32412;51.478;5.694;2023-01-29T09:43:16;46.13;;;20.65;;
46675;SDS011;32412;51.478;5.694;2023-01-29T09:45:56;42.83;;;19.42;;
46675;SDS011;32412;51.478;5.694;2023-01-29T09:48:30;41.65;;;18.70;;
46675;SDS011;32412;51.478;5.694;2023-01-29T09:50:59;44.38;;;19.45;;
46675;SDS011;32412;51.478;5.694;2023-01-29T09:53:35;38.42;;;18.25;;
46675;SDS011;32412;51.478;5.694;2023-01-29T09:56:15;40.33;;;18.95;;
46675;SDS011;32412;51.478;5.694;2023-01-29T09:58:45;40.80;;;19.08;;
46675;SDS011;32412;51.478;5.694;2023-01-29T10:01:13;40.22;;;18.50;;
46675;SDS011;32412;51.478;5.694;2023-01-29T10:15:29;44.42;;;19.15;;
46675;SDS011;32412;51.478;5.694;2023-01-29T10:20:57;43.15;;;19.20;;
46675;SDS011;32412;51.478;5.694;2023-01-29T10:23:50;39.65;;;18.23;;
46675;SDS011;32412;51.478;5.694;2023-01-29T10:26:25;44.53;;;19.48;;
46675;SDS011;32412;51.478;5.694;2023-01-29T10:28:53;38.05;;;18.67;;
46675;SDS011;32412;51.478;5.694;2023-01-29T10:31:28;40.00;;;18.45;;
46675;SDS011;32412;51.478;5.694;2023-01-29T10:37:22;41.85;;;18.48;;
46675;SDS011;32412;51.478;5.694;2023-01-29T10:39:52;40.65;;;17.83;;
46675;SDS011;32412;51.478;5.694;2023-01-29T10:45:12;40.10;;;18.50;;
46675;SDS011;32412;51.478;5.694;2023-01-29T10:48:01;35.78;;;17.02;;
46675;SDS011;32412;51.478;5.694;2023-01-29T10:56:43;41.67;;;17.50;;
46675;SDS011;32412;51.478;5.694;2023-01-29T10:59:38;35.25;;;16.60;;
46675;SDS011;32412;51.478;5.694;2023-01-29T11:02:25;43.20;;;18.92;;
46675;SDS011;32412;51.478;5.694;2023-01-29T11:04:51;38.97;;;16.77;;
46675;SDS011;32412;51.478;5.694;2023-01-29T11:07:17;39.67;;;18.48;;
46675;SDS011;32412;51.478;5.694;2023-01-29T11:09:51;38.00;;;17.67;;
46675;SDS011;32412;51.478;5.694;2023-01-29T11:12:28;37.30;;;17.80;;
46675;SDS011;32412;51.478;5.694;2023-01-29T11:15:15;38.45;;;17.23;;
46675;SDS011;32412;51.478;5.694;2023-01-29T11:18:01;40.45;;;18.20;;
46675;SDS011;32412;51.478;5.694;2023-01-29T11:20:31;37.70;;;17.25;;
46675;SDS011;32412;51.478;5.694;2023-01-29T11:22:58;33.47;;;17.10;;
46675;SDS011;32412;51.478;5.694;2023-01-29T11:25:26;39.40;;;18.77;;
46675;SDS011;32412;51.478;5.694;2023-01-29T11:27:57;42.05;;;18.48;;
46675;SDS011;32412;51.478;5.694;2023-01-29T11:30:30;37.08;;;17.27;;
46675;SDS011;32412;51.478;5.694;2023-01-29T11:35:35;39.08;;;17.60;;
46675;SDS011;32412;51.478;5.694;2023-01-29T11:38:06;34.88;;;17.08;;
46675;SDS011;32412;51.478;5.694;2023-01-29T11:40:42;41.15;;;17.83;;
46675;SDS011;32412;51.478;5.694;2023-01-29T11:43:15;39.35;;;16.98;;
46675;SDS011;32412;51.478;5.694;2023-01-29T11:45:42;36.08;;;17.45;;
46675;SDS011;32412;51.478;5.694;2023-01-29T11:48:15;37.20;;;17.38;;
46675;SDS011;32412;51.478;5.694;2023-01-29T11:50:49;35.28;;;16.92;;
46675;SDS011;32412;51.478;5.694;2023-01-29T11:53:33;36.15;;;17.35;;
46675;SDS011;32412;51.478;5.694;2023-01-29T11:56:44;34.75;;;17.35;;
46675;SDS011;32412;51.478;5.694;2023-01-29T11:58:56;34.70;;;16.17;;
46675;SDS011;32412;51.478;5.694;2023-01-29T12:01:33;37.08;;;17.48;;
46675;SDS011;32412;51.478;5.694;2023-01-29T12:04:18;36.47;;;17.77;;
46675;SDS011;32412;51.478;5.694;2023-01-29T12:06:46;36.92;;;17.45;;
46675;SDS011;32412;51.478;5.694;2023-01-29T12:09:17;36.03;;;16.23;;
46675;SDS011;32412;51.478;5.694;2023-01-29T12:11:46;37.80;;;17.20;;
46675;SDS011;32412;51.478;5.694;2023-01-29T12:19:57;30.05;;;15.90;;
46675;SDS011;32412;51.478;5.694;2023-01-29T12:25:20;35.58;;;16.30;;
46675;SDS011;32412;51.478;5.694;2023-01-29T12:30:40;34.70;;;16.13;;
46675;SDS011;32412;51.478;5.694;2023-01-29T12:33:23;29.98;;;16.15;;
46675;SDS011;32412;51.478;5.694;2023-01-29T12:38:33;36.20;;;15.93;;
46675;SDS011;32412;51.478;5.694;2023-01-29T12:43:41;34.45;;;15.75;;
46675;SDS011;32412;51.478;5.694;2023-01-29T12:46:22;34.70;;;16.13;;
46675;SDS011;32412;51.478;5.694;2023-01-29T12:48:51;33.03;;;16.35;;
46675;SDS011;32412;51.478;5.694;2023-01-29T12:51:19;35.10;;;15.82;;
46675;SDS011;32412;51.478;5.694;2023-01-29T12:53:56;30.20;;;15.15;;
46675;SDS011;32412;51.478;5.694;2023-01-29T12:57:01;32.20;;;15.25;;
46675;SDS011;32412;51.478;5.694;2023-01-29T12:59:25;27.23;;;14.68;;
46675;SDS011;32412;51.478;5.694;2023-01-29T13:01:59;31.95;;;14.88;;
46675;SDS011;32412;51.478;5.694;2023-01-29T13:04:41;33.47;;;15.88;;
46675;SDS011;32412;51.478;5.694;2023-01-29T13:09:44;34.30;;;15.65;;
46675;SDS011;32412;51.478;5.694;2023-01-29T13:12:17;27.02;;;13.85;;
46675;SDS011;32412;51.478;5.694;2023-01-29T13:17:27;29.58;;;14.75;;
46675;SDS011;32412;51.478;5.694;2023-01-29T13:20:22;25.90;;;13.50;;
46675;SDS011;32412;51.478;5.694;2023-01-29T13:22:51;30.88;;;15.50;;
46675;SDS011;32412;51.478;5.694;2023-01-29T13:25:19;31.60;;;14.50;;
46675;SDS011;32412;51.478;5.694;2023-01-29T13:27:45;30.63;;;15.15;;
46675;SDS011;32412;51.478;5.694;2023-01-29T13:30:22;31.90;;;15.52;;
46675;SDS011;32412;51.478;5.694;2023-01-29T13:32:52;31.70;;;15.40;;
46675;SDS011;32412;51.478;5.694;2023-01-29T13:35:32;30.08;;;14.90;;
46675;SDS011;32412;51.478;5.694;2023-01-29T13:38:00;34.63;;;15.90;;
46675;SDS011;32412;51.478;5.694;2023-01-29T13:40:26;31.88;;;16.20;;
46675;SDS011;32412;51.478;5.694;2023-01-29T13:42:54;30.88;;;16.02;;
46675;SDS011;32412;51.478;5.694;2023-01-29T13:47:49;34.65;;;16.08;;
46675;SDS011;32412;51.478;5.694;2023-01-29T13:52:59;36.57;;;17.83;;
46675;SDS011;32412;51.478;5.694;2023-01-29T13:55:31;32.10;;;16.30;;
46675;SDS011;32412;51.478;5.694;2023-01-29T13:57:58;30.90;;;16.05;;
46675;SDS011;32412;51.478;5.694;2023-01-29T14:07:54;34.45;;;17.33;;
46675;SDS011;32412;51.478;5.694;2023-01-29T14:10:28;34.92;;;16.70;;
46675;SDS011;32412;51.478;5.694;2023-01-29T14:15:42;35.72;;;17.00;;
46675;SDS011;32412;51.478;5.694;2023-01-29T14:18:31;32.88;;;17.55;;
46675;SDS011;32412;51.478;5.694;2023-01-29T14:21:03;36.08;;;17.70;;
46675;SDS011;32412;51.478;5.694;2023-01-29T14:26:26;38.38;;;17.70;;
46675;SDS011;32412;51.478;5.694;2023-01-29T14:28:59;35.88;;;17.65;;
46675;SDS011;32412;51.478;5.694;2023-01-29T14:34:03;38.08;;;17.83;;
46675;SDS011;32412;51.478;5.694;2023-01-29T14:36:38;40.10;;;18.25;;
46675;SDS011;32412;51.478;5.694;2023-01-29T14:39:06;35.92;;;18.48;;
46675;SDS011;32412;51.478;5.694;2023-01-29T14:42:01;37.05;;;17.90;;
46675;SDS011;32412;51.478;5.694;2023-01-29T14:44:45;35.72;;;18.20;;
46675;SDS011;32412;51.478;5.694;2023-01-29T14:49:55;38.55;;;17.13;;
46675;SDS011;32412;51.478;5.694;2023-01-29T14:52:36;42.80;;;19.52;;
46675;SDS011;32412;51.478;5.694;2023-01-29T14:55:26;35.53;;;17.80;;
46675;SDS011;32412;51.478;5.694;2023-01-29T14:57:59;41.90;;;19.73;;
46675;SDS011;32412;51.478;5.694;2023-01-29T15:00:27;39.88;;;19.10;;
46675;SDS011;32412;51.478;5.694;2023-01-29T15:03:01;37.85;;;18.45;;
46675;SDS011;32412;51.478;5.694;2023-01-29T15:05:36;39.13;;;19.45;;
46675;SDS011;32412;51.478;5.694;2023-01-29T15:10:51;41.65;;;19.08;;
46675;SDS011;32412;51.478;5.694;2023-01-29T15:16:41;44.38;;;19.70;;
46675;SDS011;32412;51.478;5.694;2023-01-29T15:19:25;43.45;;;19.83;;
46675;SDS011;32412;51.478;5.694;2023-01-29T15:22:09;44.17;;;19.03;;
46675;SDS011;32412;51.478;5.694;2023-01-29T15:24:38;43.20;;;19.33;;
46675;SDS011;32412;51.478;5.694;2023-01-29T15:27:06;35.95;;;18.38;;
46675;SDS011;32412;51.478;5.694;2023-01-29T15:32:05;41.40;;;20.85;;
46675;SDS011;32412;51.478;5.694;2023-01-29T15:34:32;43.17;;;20.75;;
46675;SDS011;32412;51.478;5.694;2023-01-29T15:36:58;43.30;;;20.35;;
46675;SDS011;32412;51.478;5.694;2023-01-29T15:39:24;48.10;;;21.40;;
46675;SDS011;32412;51.478;5.694;2023-01-29T15:42:03;44.47;;;22.17;;
46675;SDS011;32412;51.478;5.694;2023-01-29T15:44:36;50.85;;;21.63;;
46675;SDS011;32412;51.478;5.694;2023-01-29T15:47:08;58.50;;;26.35;;
46675;SDS011;32412;51.478;5.694;2023-01-29T15:49:35;47.60;;;23.45;;
46675;SDS011;32412;51.478;5.694;2023-01-29T15:52:04;41.83;;;20.15;;
46675;SDS011;32412;51.478;5.694;2023-01-29T15:54:38;39.50;;;20.60;;
46675;SDS011;32412;51.478;5.694;2023-01-29T15:57:04;46.58;;;20.40;;
46675;SDS011;32412;51.478;5.694;2023-01-29T15:59:32;38.78;;;19.20;;
46675;SDS011;32412;51.478;5.694;2023-01-29T16:04:59;43.00;;;20.27;;
46675;SDS011;32412;51.478;5.694;2023-01-29T16:07:26;42.20;;;20.08;;
46675;SDS011;32412;51.478;5.694;2023-01-29T16:09:53;41.72;;;19.05;;
46675;SDS011;32412;51.478;5.694;2023-01-29T16:12:20;44.53;;;19.73;;
46675;SDS011;32412;51.478;5.694;2023-01-29T16:14:47;39.42;;;19.55;;
46675;SDS011;32412;51.478;5.694;2023-01-29T16:17:29;42.67;;;20.27;;
46675;SDS011;32412;51.478;5.694;2023-01-29T16:20:03;39.08;;;18.52;;
46675;SDS011;32412;51.478;5.694;2023-01-29T16:22:33;39.95;;;18.33;;
46675;SDS011;32412;51.478;5.694;2023-01-29T16:25:04;38.63;;;19.23;;
46675;SDS011;32412;51.478;5.694;2023-01-29T16:27:35;46.47;;;19.05;;
46675;SDS011;32412;51.478;5.694;2023-01-29T16:30:01;44.20;;;18.75;;
46675;SDS011;32412;51.478;5.694;2023-01-29T16:32:29;38.03;;;17.65;;
46675;SDS011;32412;51.478;5.694;2023-01-29T16:34:55;38.95;;;18.23;;
46675;SDS011;32412;51.478;5.694;2023-01-29T16:37:30;37.35;;;17.85;;
46675;SDS011;32412;51.478;5.694;2023-01-29T16:40:20;38.47;;;18.83;;
46675;SDS011;32412;51.478;5.694;2023-01-29T16:45:41;37.83;;;17.13;;
46675;SDS011;32412;51.478;5.694;2023-01-29T16:48:25;37.50;;;16.92;;
46675;SDS011;32412;51.478;5.694;2023-01-29T16:51:05;36.30;;;17.50;;
46675;SDS011;32412;51.478;5.694;2023-01-29T16:53:37;33.03;;;16.60;;
46675;SDS011;32412;51.478;5.694;2023-01-29T16:56:04;37.17;;;17.42;;
46675;SDS011;32412;51.478;5.694;2023-01-29T16:58:32;38.70;;;18.30;;
46675;SDS011;32412;51.478;5.694;2023-01-29T17:01:01;34.30;;;16.83;;
46675;SDS011;32412;51.478;5.694;2023-01-29T17:03:32;33.67;;;16.33;;
46675;SDS011;32412;51.478;5.694;2023-01-29T17:06:08;34.88;;;17.95;;